Time;durP1;ratioP1;P1;durP2;ratioP2;P2;SDS_P1;SDS_P2;PMS_P1;PMS_P2;Temp;Humidity;BMP_temperature;BMP_pressure;BME280_temperature;BME280_humidity;BME280_pressure;Samples;Min_cycle;Max_cycle;Signal;HPM_P1;HPM_P2
2021/05/17 00:01:18;;;;;;;11.32;5.60;;;9.70;99.90;;;;;;5010231;28;20194;-76
2021/05/17 00:03:48;;;;;;;9.68;5.68;;;9.70;99.90;;;;;;5018130;28;20708;-75
2021/05/17 00:06:14;;;;;;;8.00;5.35;;;9.70;99.90;;;;;;5011465;28;20641;-75
2021/05/17 00:08:40;;;;;;;8.77;5.20;;;9.70;99.90;;;;;;5016260;28;20202;-75
2021/05/17 00:11:06;;;;;;;9.40;5.53;;;9.70;99.90;;;;;;5015926;28;20284;-75
2021/05/17 00:13:32;;;;;;;8.82;5.40;;;9.70;99.90;;;;;;5016953;28;20746;-75
2021/05/17 00:15:58;;;;;;;8.68;5.40;;;9.70;99.90;;;;;;5016799;28;20206;-75
2021/05/17 00:18:23;;;;;;;8.52;5.32;;;9.70;99.90;;;;;;5017234;28;20245;-76
2021/05/17 00:20:50;;;;;;;9.95;5.90;;;9.70;99.90;;;;;;5019997;28;20195;-75
2021/05/17 00:23:16;;;;;;;7.43;5.05;;;9.70;99.90;;;;;;5015740;28;20771;-76
2021/05/17 00:25:42;;;;;;;7.22;5.03;;;9.70;99.90;;;;;;5016599;28;20222;-75
2021/05/17 00:28:08;;;;;;;7.78;5.38;;;9.70;99.90;;;;;;5015363;28;21180;-77
2021/05/17 00:30:34;;;;;;;7.57;5.43;;;9.70;99.90;;;;;;5012129;28;20194;-75
2021/05/17 00:33:01;;;;;;;7.80;5.18;;;9.70;99.90;;;;;;5030822;28;20319;-74
2021/05/17 00:35:28;;;;;;;7.70;5.57;;;9.70;99.90;;;;;;5012351;28;20279;-75
2021/05/17 00:37:54;;;;;;;7.80;5.50;;;9.70;99.90;;;;;;5030622;28;20226;-76
2021/05/17 00:40:22;;;;;;;7.32;5.18;;;9.70;99.90;;;;;;5016574;28;20249;-76
2021/05/17 00:42:48;;;;;;;6.75;4.85;;;9.70;99.90;;;;;;5018713;28;20202;-76
2021/05/17 00:45:16;;;;;;;6.90;4.90;;;9.70;99.90;;;;;;5013321;28;20268;-76
2021/05/17 00:47:45;;;;;;;7.97;5.20;;;9.70;99.90;;;;;;5013516;28;20541;-75
2021/05/17 00:50:14;;;;;;;8.98;4.95;;;9.80;99.90;;;;;;5014720;28;20217;-75
2021/05/17 00:52:40;;;;;;;12.35;5.40;;;9.80;99.90;;;;;;5014836;28;20315;-75
2021/05/17 00:55:08;;;;;;;9.32;5.38;;;9.80;99.90;;;;;;5020475;28;20731;-75
2021/05/17 00:57:34;;;;;;;6.65;4.97;;;9.80;99.90;;;;;;5017629;28;20194;-75
2021/05/17 01:00:03;;;;;;;6.60;4.68;;;9.80;99.90;;;;;;5016241;28;20482;-75
2021/05/17 01:02:29;;;;;;;8.15;5.10;;;9.80;99.90;;;;;;5028957;28;20202;-77
2021/05/17 01:04:56;;;;;;;7.35;4.88;;;9.70;99.90;;;;;;5016568;23;20312;-72
2021/05/17 01:07:25;;;;;;;8.45;5.38;;;9.70;99.90;;;;;;4994259;28;20191;-72
2021/05/17 01:09:52;;;;;;;7.93;5.22;;;9.70;99.90;;;;;;4998502;28;20194;-73
2021/05/17 01:12:18;;;;;;;7.55;5.10;;;9.70;99.90;;;;;;4999171;28;20294;-73
2021/05/17 01:14:46;;;;;;;6.35;4.70;;;9.70;99.90;;;;;;4995691;28;20293;-72
2021/05/17 01:17:14;;;;;;;6.43;5.05;;;9.70;99.90;;;;;;5001332;28;20194;-72
2021/05/17 01:19:49;;;;;;;6.93;4.70;;;9.70;99.90;;;;;;5001484;28;20210;-73
2021/05/17 01:22:22;;;;;;;5.63;4.47;;;9.70;99.90;;;;;;4998748;28;20204;-73
2021/05/17 01:24:49;;;;;;;6.38;4.80;;;9.70;99.90;;;;;;5001318;28;20202;-74
2021/05/17 01:27:15;;;;;;;6.30;4.53;;;9.70;99.90;;;;;;5003859;28;20226;-72
2021/05/17 01:29:44;;;;;;;6.72;4.50;;;9.70;99.90;;;;;;4996735;28;21685;-73
2021/05/17 01:32:12;;;;;;;6.75;4.50;;;9.70;99.90;;;;;;5000243;28;20261;-73
2021/05/17 01:34:38;;;;;;;6.80;4.57;;;9.70;99.90;;;;;;5001452;28;20227;-73
2021/05/17 01:37:07;;;;;;;7.18;5.13;;;9.70;99.90;;;;;;4996544;28;20222;-73
2021/05/17 01:39:34;;;;;;;7.55;5.15;;;9.70;99.90;;;;;;4997409;28;20210;-72
2021/05/17 01:42:01;;;;;;;7.22;4.82;;;9.70;99.90;;;;;;4999600;28;20221;-72
2021/05/17 01:44:29;;;;;;;14.20;6.25;;;9.80;99.90;;;;;;5000606;28;20747;-73
2021/05/17 01:46:59;;;;;;;11.55;5.82;;;9.70;99.90;;;;;;5000690;28;20195;-72
2021/05/17 01:49:26;;;;;;;6.70;4.72;;;9.70;99.90;;;;;;4995713;28;20203;-73
2021/05/17 01:51:52;;;;;;;9.35;5.45;;;9.70;99.90;;;;;;4997779;28;20279;-72
2021/05/17 01:54:19;;;;;;;6.53;4.80;;;9.70;99.90;;;;;;4996141;28;20715;-72
2021/05/17 01:56:45;;;;;;;8.65;4.85;;;9.70;99.90;;;;;;4999693;28;20289;-72
2021/05/17 01:59:11;;;;;;;8.77;5.05;;;9.80;99.90;;;;;;4997559;28;20195;-72
2021/05/17 02:01:37;;;;;;;6.63;4.82;;;9.70;99.90;;;;;;5015497;28;20752;-73
2021/05/17 02:04:05;;;;;;;7.63;5.13;;;9.70;99.90;;;;;;5000529;28;20325;-72
2021/05/17 02:06:31;;;;;;;8.77;5.07;;;9.80;99.90;;;;;;4998431;28;20724;-73
2021/05/17 02:08:57;;;;;;;10.63;5.07;;;9.80;99.90;;;;;;4999145;28;20226;-73
2021/05/17 02:11:24;;;;;;;7.20;5.20;;;9.80;99.90;;;;;;4993475;28;20204;-73
2021/05/17 02:13:51;;;;;;;6.93;5.03;;;9.80;99.90;;;;;;4998040;28;20563;-73
2021/05/17 02:16:17;;;;;;;8.82;4.90;;;9.70;99.90;;;;;;4999258;28;21250;-73
2021/05/17 02:18:46;;;;;;;7.28;5.32;;;9.70;99.90;;;;;;4999674;28;20191;-73
2021/05/17 02:21:14;;;;;;;7.15;4.68;;;9.60;99.90;;;;;;4998895;28;20646;-73
2021/05/17 02:23:40;;;;;;;6.78;4.65;;;9.60;99.90;;;;;;4998983;28;20265;-73
2021/05/17 02:26:06;;;;;;;6.63;4.63;;;9.60;99.90;;;;;;4995512;28;20204;-72
2021/05/17 02:28:36;;;;;;;6.25;4.32;;;9.70;99.90;;;;;;4995658;28;20211;-73
2021/05/17 02:31:03;;;;;;;6.75;4.60;;;9.60;99.90;;;;;;4995338;28;20198;-73
2021/05/17 02:33:30;;;;;;;7.38;4.22;;;9.60;99.90;;;;;;5001735;28;20206;-72
2021/05/17 02:35:56;;;;;;;6.18;4.20;;;9.60;99.90;;;;;;4994097;28;20191;-71
2021/05/17 02:38:22;;;;;;;9.63;4.40;;;9.50;99.90;;;;;;4998093;28;20697;-72
2021/05/17 02:40:50;;;;;;;6.65;4.20;;;9.50;99.90;;;;;;4996954;28;20261;-72
2021/05/17 02:43:19;;;;;;;6.65;4.25;;;9.50;99.90;;;;;;4995799;28;20195;-72
2021/05/17 02:45:45;;;;;;;5.30;3.63;;;9.50;99.90;;;;;;4996827;28;20203;-72
2021/05/17 02:48:11;;;;;;;6.10;4.28;;;9.40;99.90;;;;;;4999320;28;20268;-72
2021/05/17 02:50:40;;;;;;;6.15;4.10;;;9.40;99.90;;;;;;4997839;28;20348;-73
2021/05/17 02:53:26;;;;;;;7.72;4.20;;;9.40;99.90;;;;;;4998772;28;20297;-72
2021/05/17 02:55:55;;;;;;;6.57;4.03;;;9.30;99.90;;;;;;5004344;28;20199;-73
2021/05/17 02:58:23;;;;;;;4.72;3.45;;;9.30;99.90;;;;;;5000484;28;20191;-72
2021/05/17 03:01:08;;;;;;;5.53;4.07;;;9.30;99.90;;;;;;5000570;28;20649;-73
2021/05/17 03:03:48;;;;;;;6.78;3.85;;;9.30;99.90;;;;;;5000481;28;20203;-72
2021/05/17 03:06:36;;;;;;;6.82;3.67;;;9.30;99.90;;;;;;4993826;28;20258;-72
2021/05/17 03:09:07;;;;;;;5.28;3.85;;;9.30;99.90;;;;;;4999191;28;20306;-72
2021/05/17 03:11:36;;;;;;;9.57;3.92;;;9.30;99.90;;;;;;4996425;28;20207;-72
2021/05/17 03:14:04;;;;;;;7.15;4.03;;;9.30;99.90;;;;;;4997886;28;20299;-72
2021/05/17 03:16:31;;;;;;;5.18;3.78;;;9.30;99.90;;;;;;4996703;28;20225;-72
2021/05/17 03:18:57;;;;;;;6.68;3.35;;;9.30;99.90;;;;;;4995444;28;20194;-72
2021/05/17 03:21:30;;;;;;;6.05;3.58;;;9.30;99.90;;;;;;4996962;28;20203;-72
2021/05/17 03:23:56;;;;;;;5.28;3.42;;;9.30;99.90;;;;;;4997908;28;20561;-73
2021/05/17 03:26:25;;;;;;;5.95;3.85;;;9.20;99.90;;;;;;4995083;28;20198;-72
2021/05/17 03:28:51;;;;;;;5.22;3.25;;;9.20;99.90;;;;;;5000997;28;21814;-72
2021/05/17 03:31:17;;;;;;;4.40;3.45;;;9.20;99.90;;;;;;4999007;28;20203;-72
2021/05/17 03:33:43;;;;;;;5.65;3.42;;;9.20;99.90;;;;;;4997440;28;20203;-73
2021/05/17 03:36:09;;;;;;;5.47;3.50;;;9.20;99.90;;;;;;4997818;28;20191;-72
2021/05/17 03:38:35;;;;;;;8.68;3.70;;;9.10;99.90;;;;;;5001255;28;20405;-72
2021/05/17 03:41:01;;;;;;;5.35;3.30;;;9.10;99.90;;;;;;4994825;28;20192;-72
2021/05/17 03:43:26;;;;;;;7.40;3.58;;;9.00;99.90;;;;;;4993676;28;20206;-72
2021/05/17 03:45:52;;;;;;;5.38;3.78;;;9.00;99.90;;;;;;4994826;28;20249;-73
2021/05/17 03:48:18;;;;;;;5.03;3.45;;;9.00;99.90;;;;;;4993977;28;20210;-73
2021/05/17 03:50:44;;;;;;;4.10;3.22;;;9.00;99.90;;;;;;4995917;28;20227;-72
2021/05/17 03:53:10;;;;;;;6.47;3.40;;;9.10;99.90;;;;;;4999506;28;20218;-73
2021/05/17 03:55:36;;;;;;;3.78;3.13;;;9.00;99.90;;;;;;4996117;28;20315;-72
2021/05/17 03:58:02;;;;;;;4.82;3.35;;;9.00;99.90;;;;;;4996801;28;20226;-72
2021/05/17 04:00:30;;;;;;;4.72;3.22;;;9.00;99.90;;;;;;4994817;28;20191;-72
2021/05/17 04:02:57;;;;;;;5.03;3.08;;;9.00;99.90;;;;;;4996535;28;20206;-72
2021/05/17 04:08:12;;;;;;;4.22;3.10;;;8.90;99.90;;;;;;4998247;28;20218;-73
2021/05/17 04:13:25;;;;;;;5.57;3.45;;;8.90;99.90;;;;;;4996624;28;20301;-72
2021/05/17 04:15:52;;;;;;;4.82;3.13;;;8.90;99.90;;;;;;4994523;28;20191;-72
2021/05/17 04:18:19;;;;;;;5.53;3.13;;;8.90;99.90;;;;;;4997278;28;20859;-72
2021/05/17 04:20:46;;;;;;;4.03;3.05;;;8.90;99.90;;;;;;5000739;28;20650;-72
2021/05/17 04:23:11;;;;;;;4.97;3.33;;;8.90;99.90;;;;;;5000596;28;20199;-73
2021/05/17 04:25:37;;;;;;;5.18;3.30;;;8.90;99.90;;;;;;4996717;28;20267;-73
2021/05/17 04:28:03;;;;;;;4.20;3.22;;;8.90;99.90;;;;;;5002020;28;20194;-73
2021/05/17 04:30:29;;;;;;;4.03;3.13;;;8.90;99.90;;;;;;4995435;28;20250;-72
2021/05/17 04:32:55;;;;;;;5.47;3.47;;;8.90;99.90;;;;;;5000753;28;20629;-72
2021/05/17 04:35:21;;;;;;;4.00;2.70;;;8.90;99.90;;;;;;4999830;28;20199;-73
2021/05/17 04:37:46;;;;;;;5.20;3.45;;;8.90;99.90;;;;;;4997625;28;20204;-72
2021/05/17 04:40:13;;;;;;;6.88;3.80;;;8.90;99.90;;;;;;4996501;28;20199;-73
2021/05/17 04:42:41;;;;;;;8.48;4.10;;;8.90;99.90;;;;;;5003851;28;20202;-73
2021/05/17 04:45:07;;;;;;;5.18;3.25;;;8.90;99.90;;;;;;4998734;28;20195;-72
2021/05/17 04:47:32;;;;;;;5.38;3.25;;;8.80;99.90;;;;;;5001186;28;20740;-73
2021/05/17 04:49:58;;;;;;;4.30;3.30;;;8.80;99.90;;;;;;5003117;28;20290;-73
2021/05/17 04:52:24;;;;;;;8.75;3.90;;;8.90;99.90;;;;;;5007752;28;20199;-72
2021/05/17 04:54:50;;;;;;;7.72;4.40;;;8.80;99.90;;;;;;5002407;28;20199;-72
2021/05/17 04:57:15;;;;;;;4.53;3.50;;;8.80;99.90;;;;;;5001239;28;20646;-72
2021/05/17 04:59:41;;;;;;;5.07;3.30;;;8.80;99.90;;;;;;4998249;28;20203;-71
2021/05/17 05:02:07;;;;;;;6.53;3.42;;;8.80;99.90;;;;;;5006352;28;20213;-73
2021/05/17 05:04:32;;;;;;;7.15;3.22;;;8.80;99.90;;;;;;5002243;28;20231;-71
2021/05/17 05:06:58;;;;;;;10.15;3.33;;;8.90;99.90;;;;;;5003537;28;20204;-73
2021/05/17 05:09:24;;;;;;;5.20;3.08;;;8.90;99.90;;;;;;4997927;28;20726;-73
2021/05/17 05:11:50;;;;;;;7.50;3.17;;;8.90;99.90;;;;;;5000326;28;20658;-73
2021/05/17 05:14:16;;;;;;;9.20;3.42;;;8.90;99.90;;;;;;4997832;28;20204;-72
2021/05/17 05:16:42;;;;;;;4.03;3.15;;;8.90;99.90;;;;;;5004102;28;20282;-72
2021/05/17 05:19:08;;;;;;;8.73;3.55;;;9.00;99.90;;;;;;4999383;28;20203;-73
2021/05/17 05:21:34;;;;;;;10.93;5.80;;;9.10;99.90;;;;;;5007494;28;20203;-72
2021/05/17 05:24:00;;;;;;;10.25;5.57;;;9.10;99.90;;;;;;5004628;28;21074;-72
2021/05/17 05:26:52;;;;;;;7.18;4.85;;;9.00;99.90;;;;;;5001815;28;20195;-72
2021/05/17 05:29:26;;;;;;;5.18;3.40;;;9.00;99.90;;;;;;5002779;28;20633;-72
2021/05/17 05:34:18;;;;;;;4.38;3.40;;;9.10;99.90;;;;;;5001853;28;20195;-73
2021/05/17 05:36:44;;;;;;;4.78;3.25;;;9.10;99.90;;;;;;4993972;28;20305;-73
2021/05/17 05:39:10;;;;;;;3.78;2.80;;;9.20;99.90;;;;;;5000124;28;20203;-73
2021/05/17 05:41:35;;;;;;;5.68;2.80;;;9.20;99.90;;;;;;5000544;28;20205;-73
2021/05/17 05:44:01;;;;;;;5.82;3.15;;;9.20;99.90;;;;;;5002733;28;20198;-73
2021/05/17 05:46:27;;;;;;;4.97;3.47;;;9.20;99.90;;;;;;5001130;28;20206;-74
2021/05/17 05:48:54;;;;;;;4.80;2.97;;;9.20;99.90;;;;;;5002705;28;20209;-74
2021/05/17 05:51:28;;;;;;;5.20;3.17;;;9.30;99.90;;;;;;5005160;28;20241;-74
2021/05/17 05:53:54;;;;;;;4.05;3.15;;;9.30;99.90;;;;;;5003008;28;20215;-74
2021/05/17 05:56:19;;;;;;;3.72;2.85;;;9.40;99.90;;;;;;5004231;28;20633;-73
2021/05/17 05:58:47;;;;;;;4.57;3.10;;;9.40;99.90;;;;;;5000770;28;20191;-73
2021/05/17 06:01:13;;;;;;;4.13;2.83;;;9.40;99.90;;;;;;5001894;28;20249;-74
2021/05/17 06:03:39;;;;;;;4.97;3.08;;;9.40;99.90;;;;;;5004392;28;20199;-74
2021/05/17 06:06:08;;;;;;;7.55;3.45;;;9.40;99.90;;;;;;4998903;28;20301;-74
2021/05/17 06:08:35;;;;;;;3.50;2.60;;;9.40;99.90;;;;;;4999433;28;20207;-74
2021/05/17 06:11:02;;;;;;;6.40;3.17;;;9.50;99.90;;;;;;4997535;28;20309;-74
2021/05/17 06:13:28;;;;;;;3.95;2.80;;;9.50;99.90;;;;;;5002583;28;20225;-74
2021/05/17 06:15:54;;;;;;;3.78;2.85;;;9.50;99.90;;;;;;5002554;28;20591;-74
2021/05/17 06:18:19;;;;;;;4.10;3.00;;;9.50;99.90;;;;;;4999470;28;20234;-73
2021/05/17 06:20:45;;;;;;;3.85;2.63;;;9.50;99.90;;;;;;4998006;28;20205;-74
2021/05/17 06:23:14;;;;;;;3.88;2.88;;;9.50;99.90;;;;;;5003922;28;20194;-74
2021/05/17 06:25:41;;;;;;;4.00;2.95;;;9.50;99.90;;;;;;5001537;28;20195;-73
2021/05/17 06:28:07;;;;;;;3.63;2.80;;;9.60;99.90;;;;;;4994200;28;20204;-73
2021/05/17 06:30:42;;;;;;;4.55;2.50;;;9.50;99.90;;;;;;4994576;28;20274;-73
2021/05/17 06:33:08;;;;;;;3.85;2.83;;;9.50;99.90;;;;;;5007358;28;20301;-73
2021/05/17 06:35:44;;;;;;;4.60;3.00;;;9.50;99.90;;;;;;5001090;28;20195;-73
2021/05/17 06:38:09;;;;;;;3.75;2.83;;;9.50;99.90;;;;;;5009113;28;20935;-73
2021/05/17 06:40:35;;;;;;;3.95;2.90;;;9.50;99.90;;;;;;4999066;28;20199;-73
2021/05/17 06:43:01;;;;;;;7.50;3.15;;;9.60;99.90;;;;;;5004039;28;20545;-73
2021/05/17 06:45:27;;;;;;;3.63;2.75;;;9.60;99.90;;;;;;4999400;28;20207;-73
2021/05/17 06:47:54;;;;;;;3.70;2.75;;;9.60;99.90;;;;;;4995820;28;20290;-73
2021/05/17 06:50:20;;;;;;;3.35;2.30;;;9.60;99.90;;;;;;4999711;28;20290;-73
2021/05/17 06:52:46;;;;;;;4.47;2.70;;;9.60;99.90;;;;;;4999786;28;20211;-73
2021/05/17 06:55:19;;;;;;;4.47;2.30;;;9.60;99.90;;;;;;4999008;28;20526;-73
2021/05/17 06:58:24;;;;;;;3.13;2.67;;;9.60;99.90;;;;;;5001162;28;20252;-73
2021/05/17 07:00:37;;;;;;;5.50;2.30;;;9.60;99.90;;;;;;4998800;28;20290;-73
2021/05/17 07:03:06;;;;;;;2.67;2.28;;;9.50;99.90;;;;;;5000970;28;20242;-73
2021/05/17 07:05:33;;;;;;;3.35;2.20;;;9.50;99.90;;;;;;5003348;28;20241;-73
2021/05/17 07:13:15;;;;;;;3.08;2.08;;;9.50;99.90;;;;;;5003052;28;20276;-73
2021/05/17 07:15:41;;;;;;;5.60;2.10;;;9.50;99.90;;;;;;5003746;28;20601;-73
2021/05/17 07:18:08;;;;;;;2.90;2.10;;;9.40;99.90;;;;;;4999974;28;20199;-72
2021/05/17 07:26:00;;;;;;;2.50;2.03;;;9.30;99.90;;;;;;4998277;28;20257;-73
2021/05/17 07:28:27;;;;;;;2.80;2.20;;;9.40;99.90;;;;;;5003807;28;20803;-73
2021/05/17 07:30:53;;;;;;;4.53;2.58;;;9.40;99.90;;;;;;5004426;28;20199;-73
2021/05/17 07:33:19;;;;;;;3.50;2.42;;;9.40;99.90;;;;;;4994148;28;20650;-73
2021/05/17 07:35:45;;;;;;;4.45;2.30;;;9.40;99.90;;;;;;4994501;28;20192;-72
2021/05/17 07:38:11;;;;;;;4.03;2.45;;;9.40;99.90;;;;;;4997800;28;20225;-73
2021/05/17 07:40:37;;;;;;;3.15;2.25;;;9.40;99.90;;;;;;5000077;28;20611;-73
2021/05/17 07:43:04;;;;;;;3.20;2.30;;;9.50;99.90;;;;;;4998254;28;20213;-75
2021/05/17 07:45:30;;;;;;;4.43;2.17;;;9.50;99.90;;;;;;4999063;28;20733;-73
2021/05/17 07:47:56;;;;;;;2.42;2.00;;;9.50;99.90;;;;;;4998832;28;20194;-73
2021/05/17 07:50:21;;;;;;;6.32;4.50;;;9.60;99.90;;;;;;4994526;28;20693;-73
2021/05/17 07:52:47;;;;;;;5.78;2.83;;;9.60;99.90;;;;;;4996761;28;20282;-73
2021/05/17 07:55:15;;;;;;;2.70;2.30;;;9.70;99.90;;;;;;5001469;28;20277;-73
2021/05/17 07:57:41;;;;;;;3.13;2.38;;;9.80;99.90;;;;;;4998640;28;20227;-73
2021/05/17 08:00:08;;;;;;;3.05;2.28;;;9.90;99.90;;;;;;5000066;28;20199;-73
2021/05/17 08:02:34;;;;;;;3.67;2.58;;;10.00;99.90;;;;;;5002214;28;20281;-73
2021/05/17 08:05:00;;;;;;;3.95;2.80;;;10.00;99.90;;;;;;4994637;28;20233;-73
2021/05/17 08:07:25;;;;;;;8.77;3.05;;;10.00;99.90;;;;;;4995177;28;20207;-74
2021/05/17 08:09:52;;;;;;;2.90;2.22;;;10.00;99.90;;;;;;4999398;28;20208;-74
2021/05/17 08:12:21;;;;;;;2.60;2.08;;;10.10;99.90;;;;;;4999531;28;20207;-74
2021/05/17 08:14:47;;;;;;;2.88;2.30;;;10.10;99.90;;;;;;4996752;28;20279;-73
2021/05/17 08:17:13;;;;;;;2.22;1.90;;;10.10;99.90;;;;;;4997448;28;20286;-74
2021/05/17 08:19:39;;;;;;;6.38;1.85;;;10.10;99.90;;;;;;5001350;28;20672;-73
2021/05/17 08:22:05;;;;;;;4.15;2.33;;;10.10;99.90;;;;;;4998246;28;20183;-73
2021/05/17 08:24:30;;;;;;;2.45;2.05;;;10.00;99.90;;;;;;4998413;28;20202;-74
2021/05/17 08:26:56;;;;;;;2.95;2.03;;;9.90;99.90;;;;;;4995913;28;20241;-75
2021/05/17 08:29:23;;;;;;;3.90;2.20;;;10.00;99.90;;;;;;4996923;28;20658;-74
2021/05/17 08:31:51;;;;;;;2.85;2.20;;;10.00;99.90;;;;;;5000693;28;20685;-74
2021/05/17 08:34:18;;;;;;;3.22;2.10;;;10.10;99.90;;;;;;5000797;28;20893;-74
2021/05/17 08:36:44;;;;;;;2.30;1.90;;;10.10;99.90;;;;;;4993680;28;20604;-74
2021/05/17 08:39:10;;;;;;;3.10;1.95;;;10.20;99.90;;;;;;5000026;28;20242;-74
2021/05/17 08:41:37;;;;;;;2.53;2.20;;;10.20;99.90;;;;;;5004833;28;20195;-74
2021/05/17 08:44:04;;;;;;;2.08;1.83;;;10.40;99.90;;;;;;4998818;28;20248;-74
2021/05/17 08:46:30;;;;;;;2.20;1.80;;;10.40;99.90;;;;;;4997331;28;20570;-75
2021/05/17 08:48:56;;;;;;;2.45;1.70;;;10.60;99.90;;;;;;4999363;28;20199;-73
2021/05/17 08:51:31;;;;;;;4.68;2.05;;;10.70;99.90;;;;;;5001346;28;20253;-73
2021/05/17 08:54:00;;;;;;;2.25;1.90;;;10.70;99.90;;;;;;4995891;28;20233;-73
2021/05/17 08:56:26;;;;;;;2.67;2.05;;;10.80;99.90;;;;;;4992673;28;20221;-73
2021/05/17 08:58:57;;;;;;;2.30;1.88;;;10.80;99.90;;;;;;4998687;28;20190;-73
2021/05/17 09:01:22;;;;;;;1.92;1.73;;;11.00;99.90;;;;;;4996487;28;20481;-74
2021/05/17 09:04:02;;;;;;;1.98;1.67;;;11.30;99.90;;;;;;4995025;28;20195;-74
2021/05/17 09:06:42;;;;;;;1.98;1.65;;;11.40;99.90;;;;;;5003777;28;20199;-74
2021/05/17 09:09:24;;;;;;;1.60;1.40;;;11.70;99.90;;;;;;4993199;28;20575;-74
2021/05/17 09:11:51;;;;;;;1.58;1.25;;;11.90;99.90;;;;;;4994152;28;20226;-74
2021/05/17 09:14:18;;;;;;;2.30;1.55;;;12.10;99.90;;;;;;5000267;28;20216;-74
2021/05/17 09:16:49;;;;;;;1.60;1.50;;;12.20;99.90;;;;;;4994519;28;20633;-75
2021/05/17 09:19:15;;;;;;;3.92;1.50;;;12.30;99.90;;;;;;5005564;28;20300;-75
2021/05/17 09:22:04;;;;;;;1.33;1.23;;;12.40;99.90;;;;;;4996183;28;20253;-74
2021/05/17 09:24:38;;;;;;;1.55;1.27;;;12.50;99.90;;;;;;4987279;28;20480;-74
2021/05/17 09:27:05;;;;;;;1.60;1.10;;;12.90;99.90;;;;;;5006684;28;20198;-74
2021/05/17 09:29:39;;;;;;;1.30;1.20;;;13.50;99.90;;;;;;4996313;28;20253;-74
2021/05/17 09:32:26;;;;;;;1.45;1.20;;;13.70;99.90;;;;;;4996157;28;20529;-75
2021/05/17 09:35:05;;;;;;;2.60;0.90;;;14.00;99.90;;;;;;4996143;28;20693;-74
2021/05/17 09:37:46;;;;;;;1.13;1.02;;;14.30;99.90;;;;;;4996046;28;20238;-75
2021/05/17 09:40:24;;;;;;;1.50;0.80;;;14.50;99.90;;;;;;4999568;28;20197;-75
2021/05/17 09:43:07;;;;;;;2.38;1.10;;;14.70;99.90;;;;;;4997849;28;20213;-75
2021/05/17 09:45:37;;;;;;;1.40;0.90;;;14.80;99.90;;;;;;5001599;28;20257;-75
2021/05/17 09:48:10;;;;;;;0.65;0.65;;;15.20;99.90;;;;;;5002241;28;20246;-75
2021/05/17 09:50:58;;;;;;;1.75;0.80;;;15.40;99.90;;;;;;5004432;28;20277;-75
2021/05/17 09:53:30;;;;;;;0.70;0.70;;;15.20;99.90;;;;;;5005409;28;20218;-75
2021/05/17 09:55:56;;;;;;;0.73;0.73;;;14.90;99.90;;;;;;5006586;28;20195;-75
2021/05/17 09:58:41;;;;;;;0.70;0.70;;;14.40;99.90;;;;;;4994972;28;20196;-74
2021/05/17 10:01:13;;;;;;;0.80;0.80;;;13.70;99.90;;;;;;5018331;28;20199;-75
2021/05/17 10:03:48;;;;;;;0.80;0.80;;;13.40;99.90;;;;;;4997822;28;20204;-75
2021/05/17 10:06:19;;;;;;;1.63;0.90;;;13.00;99.90;;;;;;4995986;28;20230;-75
2021/05/17 10:08:46;;;;;;;0.93;0.90;;;12.60;99.90;;;;;;4999244;28;20214;-74
2021/05/17 10:11:12;;;;;;;1.17;1.05;;;12.50;99.90;;;;;;4999225;28;20203;-74
2021/05/17 10:13:38;;;;;;;1.20;1.10;;;12.40;99.90;;;;;;4996369;28;20578;-74
2021/05/17 10:16:10;;;;;;;4.63;1.25;;;12.60;99.90;;;;;;4999321;28;20195;-74
2021/05/17 10:18:37;;;;;;;1.67;1.30;;;13.20;99.90;;;;;;5002726;28;20677;-74
2021/05/17 10:21:06;;;;;;;1.88;1.40;;;13.60;99.90;;;;;;5002475;28;20194;-74
2021/05/17 10:23:32;;;;;;;2.80;1.60;;;13.40;99.90;;;;;;4995335;28;20203;-74
2021/05/17 10:26:11;;;;;;;2.45;1.73;;;13.30;99.90;;;;;;5004083;28;20217;-74
2021/05/17 10:28:38;;;;;;;1.83;1.55;;;13.40;99.90;;;;;;5004253;28;20199;-74
2021/05/17 10:31:16;;;;;;;1.45;1.25;;;13.30;99.90;;;;;;5002459;28;20290;-74
2021/05/17 10:33:43;;;;;;;1.83;1.50;;;13.00;99.90;;;;;;4997777;28;20635;-74
2021/05/17 10:36:10;;;;;;;1.80;1.50;;;12.80;99.90;;;;;;5000338;28;20250;-74
2021/05/17 10:38:46;;;;;;;2.42;1.70;;;12.90;99.90;;;;;;4993804;28;20672;-74
2021/05/17 10:44:07;;;;;;;1.95;1.40;;;13.30;99.90;;;;;;5001143;28;20207;-74
2021/05/17 10:46:57;;;;;;;1.70;1.50;;;13.40;99.90;;;;;;4995655;28;20685;-74
2021/05/17 10:49:34;;;;;;;1.70;1.40;;;13.40;99.90;;;;;;4996323;28;20195;-74
2021/05/17 10:52:06;;;;;;;1.20;1.10;;;13.40;99.90;;;;;;4994235;28;20203;-74
2021/05/17 10:54:35;;;;;;;1.10;1.00;;;13.50;99.90;;;;;;4999137;28;20203;-74
2021/05/17 10:57:33;;;;;;;0.95;0.90;;;13.50;99.90;;;;;;4992372;28;20192;-75
2021/05/17 11:02:44;;;;;;;0.90;0.90;;;13.90;99.90;;;;;;5000874;28;20249;-74
2021/05/17 11:05:12;;;;;;;1.63;1.08;;;13.90;99.90;;;;;;5001429;28;20218;-75
2021/05/17 11:07:55;;;;;;;1.65;1.05;;;13.80;99.90;;;;;;5001078;28;20207;-73
2021/05/17 11:10:34;;;;;;;1.10;1.00;;;13.60;99.90;;;;;;4996346;28;20696;-74
2021/05/17 11:13:03;;;;;;;1.35;1.08;;;13.30;99.90;;;;;;5005059;28;20211;-74
2021/05/17 11:16:03;;;;;;;1.00;1.00;;;13.40;99.90;;;;;;5000181;28;20280;-74
2021/05/17 11:18:43;;;;;;;1.65;1.00;;;13.70;99.90;;;;;;4999556;28;20210;-75
2021/05/17 11:21:28;;;;;;;1.40;1.02;;;14.10;99.90;;;;;;5001579;28;20244;-75
2021/05/17 11:23:55;;;;;;;3.13;1.00;;;14.50;99.90;;;;;;5001202;28;20194;-75
2021/05/17 11:26:23;;;;;;;0.85;0.85;;;14.60;99.90;;;;;;5014690;28;20701;-75
2021/05/17 11:28:49;;;;;;;1.00;0.90;;;14.30;99.90;;;;;;4999283;28;20254;-74
2021/05/17 11:34:02;;;;;;;0.70;0.70;;;14.70;99.90;;;;;;5000538;28;20326;-74
2021/05/17 11:36:42;;;;;;;0.70;0.70;;;15.20;99.90;;;;;;4996756;28;20285;-74
2021/05/17 11:39:08;;;;;;;1.88;0.68;;;15.90;99.90;;;;;;4998905;28;20207;-74
2021/05/17 11:41:48;;;;;;;0.63;0.63;;;16.40;99.90;;;;;;4999059;28;20192;-75
2021/05/17 11:44:24;;;;;;;0.65;0.65;;;16.50;99.90;;;;;;4997149;28;20191;-74
2021/05/17 11:46:58;;;;;;;0.57;0.57;;;16.40;99.90;;;;;;5000424;28;20554;-74
2021/05/17 11:49:26;;;;;;;0.70;0.70;;;16.40;99.90;;;;;;4998174;28;20202;-74
2021/05/17 11:51:54;;;;;;;0.88;0.68;;;16.60;99.90;;;;;;5004255;28;20194;-74
2021/05/17 11:54:22;;;;;;;0.63;0.63;;;16.10;99.90;;;;;;4996524;28;20225;-74
2021/05/17 11:56:55;;;;;;;4.70;0.70;;;16.00;99.90;;;;;;5000217;28;20253;-74
2021/05/17 11:59:23;;;;;;;1.30;0.77;;;15.70;99.90;;;;;;4999561;28;20206;-74
2021/05/17 12:01:58;;;;;;;3.22;1.20;;;15.40;99.90;;;;;;4996523;28;20322;-74
2021/05/17 12:04:33;;;;;;;2.30;1.73;;;14.90;99.90;;;;;;5002427;28;20232;-74
2021/05/17 12:07:07;;;;;;;1.50;1.40;;;14.40;99.90;;;;;;4998182;28;20210;-74
2021/05/17 12:09:37;;;;;;;5.95;1.30;;;13.90;99.90;;;;;;5001940;28;20203;-74
2021/05/17 12:12:06;;;;;;;1.45;1.23;;;13.90;99.90;;;;;;5002105;28;20198;-74
2021/05/17 12:14:33;;;;;;;4.20;1.30;;;13.70;99.90;;;;;;4999279;28;20205;-74
2021/05/17 12:17:09;;;;;;;4.40;1.20;;;13.50;99.90;;;;;;5002891;28;20194;-75
2021/05/17 12:19:36;;;;;;;2.00;1.05;;;13.50;99.90;;;;;;5000779;28;20205;-74
2021/05/17 12:22:24;;;;;;;6.30;1.20;;;13.50;99.90;;;;;;5002165;28;20553;-73
2021/05/17 12:24:57;;;;;;;3.67;1.20;;;13.50;99.90;;;;;;5000815;28;20253;-72
2021/05/17 12:27:23;;;;;;;2.72;1.30;;;13.50;99.90;;;;;;5003955;28;20227;-74
2021/05/17 12:29:52;;;;;;;3.22;1.30;;;13.80;99.90;;;;;;4995656;28;20203;-74
2021/05/17 12:32:21;;;;;;;1.27;1.10;;;14.30;99.90;;;;;;4993617;28;20206;-74
2021/05/17 12:34:56;;;;;;;1.10;1.00;;;15.00;99.90;;;;;;4998622;28;20222;-74
2021/05/17 12:37:31;;;;;;;0.90;0.90;;;15.40;99.90;;;;;;4998856;28;20194;-74
2021/05/17 12:40:25;;;;;;;0.93;0.85;;;15.40;99.90;;;;;;4999175;28;20559;-74
2021/05/17 12:43:05;;;;;;;1.60;1.00;;;15.50;99.90;;;;;;5002882;28;20195;-74
2021/05/17 12:45:32;;;;;;;0.90;0.80;;;15.70;99.90;;;;;;5003619;28;20206;-74
2021/05/17 12:47:58;;;;;;;1.02;0.95;;;15.50;99.90;;;;;;5001284;28;20245;-73
2021/05/17 12:50:23;;;;;;;1.13;1.02;;;15.80;99.90;;;;;;4994273;28;20199;-74
2021/05/17 12:53:01;;;;;;;2.50;1.00;;;15.60;99.90;;;;;;4993899;28;20210;-74
2021/05/17 12:55:27;;;;;;;0.80;0.80;;;15.50;99.90;;;;;;4994225;28;20195;-74
2021/05/17 12:57:56;;;;;;;1.10;1.00;;;15.40;99.90;;;;;;4995407;28;20238;-74
2021/05/17 13:00:36;;;;;;;1.50;1.00;;;15.40;99.90;;;;;;4990739;28;20226;-74
2021/05/17 13:03:04;;;;;;;1.25;0.85;;;15.30;99.90;;;;;;4995944;28;20249;-74
2021/05/17 13:05:47;;;;;;;0.98;0.98;;;15.50;99.90;;;;;;5000332;28;20218;-73
2021/05/17 13:08:13;;;;;;;1.80;1.02;;;15.30;99.90;;;;;;5000124;28;20261;-74
2021/05/17 13:11:02;;;;;;;4.63;0.90;;;15.20;99.90;;;;;;4997833;28;21007;-74
2021/05/17 13:13:44;;;;;;;1.08;0.98;;;15.10;99.90;;;;;;5002779;28;20210;-74
2021/05/17 13:16:15;;;;;;;1.02;0.95;;;15.10;99.90;;;;;;5003928;28;20203;-74
2021/05/17 13:19:12;;;;;;;3.10;1.10;;;15.00;99.90;;;;;;4998018;28;20199;-73
2021/05/17 13:21:52;;;;;;;6.25;1.20;;;14.60;99.90;;;;;;4998461;28;20282;-74
2021/05/17 13:24:57;;;;;;;1.10;1.00;;;14.50;99.90;;;;;;4995540;28;20723;-73
2021/05/17 13:32:40;;;;;;;3.03;1.50;;;14.40;99.90;;;;;;5000149;28;20203;-73
2021/05/17 13:35:09;;;;;;;3.72;1.00;;;14.40;99.90;;;;;;4995541;28;20717;-75
2021/05/17 13:37:35;;;;;;;25.48;12.38;;;14.40;99.90;;;;;;5001457;28;20199;-75